Terminal Aerodrome Forecast
Issued by NWS

Home | Current Version | Previous Version | Graphics & Text | Print | Product List | Glossary On
Versions: 1 2 3 4 5 6 7 8 9 10 11 12 13 14 15 16
000
FTUS43 KFGF 221120
TAFBJI
TAF
KBJI 221120Z 2212/2312 29008KT P6SM SKC
     FM221800 30019G27KT P6SM FEW200
     FM230000 32013KT P6SM SKC
     FM230200 31007KT P6SM SKC
     FM230500 VRB03KT P6SM SKC=

USA.gov is the U.S. government's official web portal to all federal, state and local government web resources and services.